Time;durP1;ratioP1;P1;durP2;ratioP2;P2;SDS_P1;SDS_P2;PMS_P1;PMS_P2;Temp;Humidity;BMP_temperature;BMP_pressure;BME280_temperature;BME280_humidity;BME280_pressure;Samples;Min_cycle;Max_cycle;Signal;HPM_P1;HPM_P2
2022/12/12 00:00:46;;;;;;;30.10;22.03;;;;;;;;;;4968266;28;20201;-80
2022/12/12 00:03:12;;;;;;;32.10;22.47;;;;;;;;;;4958409;28;20202;-80
2022/12/12 00:05:38;;;;;;;31.90;23.30;;;;;;;;;;4974649;28;20183;-80
2022/12/12 00:08:04;;;;;;;32.70;23.03;;;;;;;;;;4973501;28;20290;-80
2022/12/12 00:10:30;;;;;;;31.73;23.27;;;;;;;;;;4974615;28;20182;-80
2022/12/12 00:12:56;;;;;;;34.00;22.93;;;;;;;;;;4974433;28;20203;-81
2022/12/12 00:15:22;;;;;;;36.07;24.00;;;;;;;;;;4958290;28;20229;-81
2022/12/12 00:17:48;;;;;;;33.53;22.93;;;;;;;;;;4975516;28;20234;-81
2022/12/12 00:20:15;;;;;;;33.90;23.03;;;;;;;;;;4974717;28;20189;-80
2022/12/12 00:22:41;;;;;;;33.10;23.57;;;;;;;;;;4974356;28;20183;-80
2022/12/12 00:25:07;;;;;;;34.53;23.53;;;;;;;;;;4974405;28;20285;-80
2022/12/12 00:27:33;;;;;;;30.43;22.23;;;;;;;;;;4957700;28;20220;-80
2022/12/12 00:32:35;;;;;;;31.53;22.10;;;;;;;;;;4969762;28;20230;-81
2022/12/12 00:35:01;;;;;;;33.80;23.30;;;;;;;;;;4941253;28;20225;-81
2022/12/12 00:37:27;;;;;;;33.20;22.70;;;;;;;;;;4956939;28;20273;-81
2022/12/12 00:39:53;;;;;;;31.13;22.70;;;;;;;;;;4953955;29;20183;-81
2022/12/12 00:42:19;;;;;;;33.47;23.87;;;;;;;;;;4957964;28;20218;-81
2022/12/12 00:44:45;;;;;;;32.13;23.07;;;;;;;;;;4957403;28;20218;-81
2022/12/12 00:47:11;;;;;;;31.80;23.00;;;;;;;;;;4957220;28;20186;-79
2022/12/12 00:49:37;;;;;;;31.60;22.77;;;;;;;;;;4942003;28;20218;-79
2022/12/12 00:52:04;;;;;;;28.87;21.57;;;;;;;;;;4943646;28;20186;-79
2022/12/12 00:54:30;;;;;;;32.20;22.93;;;;;;;;;;4962374;28;20206;-78
2022/12/12 00:56:56;;;;;;;33.27;22.70;;;;;;;;;;4964524;28;20187;-79
2022/12/12 00:59:22;;;;;;;31.57;22.97;;;;;;;;;;4948498;28;20292;-79
2022/12/12 01:01:48;;;;;;;28.97;21.10;;;;;;;;;;4962237;28;20214;-79
2022/12/12 01:04:14;;;;;;;32.23;22.70;;;;;;;;;;4949734;28;20218;-78
2022/12/12 01:06:40;;;;;;;29.83;21.07;;;;;;;;;;4964567;28;20186;-78
2022/12/12 01:09:06;;;;;;;31.87;22.43;;;;;;;;;;4948385;28;20269;-78
2022/12/12 01:11:32;;;;;;;35.27;23.17;;;;;;;;;;4948455;28;20199;-79
2022/12/12 01:13:58;;;;;;;33.03;22.93;;;;;;;;;;4974329;28;20179;-79
2022/12/12 01:16:24;;;;;;;30.07;22.73;;;;;;;;;;4948962;28;20218;-78
2022/12/12 01:18:50;;;;;;;31.07;21.83;;;;;;;;;;4963031;28;20284;-79
2022/12/12 01:21:18;;;;;;;34.03;22.90;;;;;;;;;;4965279;28;20179;-78
2022/12/12 01:23:44;;;;;;;29.80;21.77;;;;;;;;;;4966519;28;20217;-78
2022/12/12 01:26:12;;;;;;;30.97;22.07;;;;;;;;;;4961699;28;20213;-78
2022/12/12 01:28:38;;;;;;;30.43;22.03;;;;;;;;;;4961818;28;20238;-78
2022/12/12 01:31:04;;;;;;;32.90;22.83;;;;;;;;;;4956419;28;20330;-79
2022/12/12 01:33:31;;;;;;;30.60;22.00;;;;;;;;;;4928955;29;20195;-78
2022/12/12 01:35:57;;;;;;;31.63;23.60;;;;;;;;;;4950251;28;20183;-79
2022/12/12 01:38:23;;;;;;;31.23;22.27;;;;;;;;;;4945433;28;20190;-82
2022/12/12 01:40:49;;;;;;;32.87;23.53;;;;;;;;;;4954982;29;20171;-82
2022/12/12 01:43:16;;;;;;;32.60;22.63;;;;;;;;;;4943615;28;20273;-82
2022/12/12 01:45:58;;;;;;;30.63;22.30;;;;;;;;;;4945820;29;20180;-82
2022/12/12 01:48:36;;;;;;;28.87;21.37;;;;;;;;;;4951489;28;20314;-82
2022/12/12 01:51:06;;;;;;;30.80;22.07;;;;;;;;;;4954457;28;20274;-82
2022/12/12 01:53:32;;;;;;;33.40;22.93;;;;;;;;;;4956561;28;20188;-82
2022/12/12 01:56:00;;;;;;;29.30;22.47;;;;;;;;;;4946285;29;20183;-82
2022/12/12 01:58:26;;;;;;;29.37;21.97;;;;;;;;;;4948820;29;20191;-82
2022/12/12 02:00:52;;;;;;;32.73;22.90;;;;;;;;;;4956469;28;20191;-82
2022/12/12 02:03:18;;;;;;;30.67;22.17;;;;;;;;;;4933330;28;20279;-82
2022/12/12 02:05:52;;;;;;;29.47;22.33;;;;;;;;;;4932770;28;20184;-82
2022/12/12 02:08:20;;;;;;;30.77;22.77;;;;;;;;;;4958804;28;20211;-82
2022/12/12 02:10:47;;;;;;;27.73;21.80;;;;;;;;;;4955080;28;20219;-78
2022/12/12 02:13:14;;;;;;;29.90;21.77;;;;;;;;;;4951380;29;20194;-79
2022/12/12 02:15:42;;;;;;;28.40;21.37;;;;;;;;;;4948576;29;20183;-79
2022/12/12 02:18:11;;;;;;;32.23;22.10;;;;;;;;;;4956333;28;20183;-79
2022/12/12 02:20:40;;;;;;;28.37;21.23;;;;;;;;;;4948670;29;20274;-78
2022/12/12 02:23:13;;;;;;;31.70;22.37;;;;;;;;;;4956309;28;20218;-78
2022/12/12 02:25:57;;;;;;;31.57;22.33;;;;;;;;;;4941273;29;20260;-78
2022/12/12 02:28:29;;;;;;;29.87;21.17;;;;;;;;;;4940941;29;20218;-78
2022/12/12 02:30:58;;;;;;;28.90;20.73;;;;;;;;;;4941621;29;20230;-78
2022/12/12 02:33:24;;;;;;;31.93;22.27;;;;;;;;;;4952360;29;20250;-78
2022/12/12 02:36:00;;;;;;;30.77;22.17;;;;;;;;;;4940607;29;20183;-78
2022/12/12 02:38:29;;;;;;;28.67;20.97;;;;;;;;;;4940001;29;20191;-78
2022/12/12 02:40:55;;;;;;;30.50;21.97;;;;;;;;;;4940633;29;20198;-77
2022/12/12 02:43:38;;;;;;;30.50;22.37;;;;;;;;;;4940567;29;20200;-81
2022/12/12 02:46:06;;;;;;;30.73;21.87;;;;;;;;;;4957922;29;20183;-82
2022/12/12 02:48:49;;;;;;;29.70;21.37;;;;;;;;;;4939958;29;20222;-82
2022/12/12 02:51:15;;;;;;;32.17;22.30;;;;;;;;;;4940576;29;20283;-82
2022/12/12 02:53:41;;;;;;;31.83;22.47;;;;;;;;;;4956288;29;20190;-81
2022/12/12 02:56:09;;;;;;;29.83;22.23;;;;;;;;;;4956344;29;20282;-81
2022/12/12 02:58:37;;;;;;;30.43;22.93;;;;;;;;;;4956132;29;20187;-82
2022/12/12 03:01:22;;;;;;;32.17;21.77;;;;;;;;;;4940497;29;20191;-82
2022/12/12 03:10:13;;;;;;;30.93;22.57;;;;;;;;;;4948080;28;20242;-82
2022/12/12 03:12:59;;;;;;;30.93;22.00;;;;;;;;;;4937100;28;20278;-82
2022/12/12 03:15:27;;;;;;;31.27;21.73;;;;;;;;;;4956494;29;20187;-82
2022/12/12 03:17:53;;;;;;;31.23;22.30;;;;;;;;;;4957714;29;20191;-78
2022/12/12 03:20:22;;;;;;;30.33;22.33;;;;;;;;;;4956101;28;20184;-78
2022/12/12 03:22:53;;;;;;;31.80;22.30;;;;;;;;;;4956060;28;20274;-78
2022/12/12 03:25:27;;;;;;;32.13;22.57;;;;;;;;;;4939941;29;20281;-78
2022/12/12 03:27:58;;;;;;;31.77;22.40;;;;;;;;;;4961047;28;20187;-78
2022/12/12 03:30:25;;;;;;;30.77;22.77;;;;;;;;;;4939964;29;20186;-78
2022/12/12 03:32:50;;;;;;;32.87;22.90;;;;;;;;;;4947498;29;20234;-78
2022/12/12 03:35:22;;;;;;;30.07;22.63;;;;;;;;;;4956553;28;20256;-82
2022/12/12 03:37:50;;;;;;;30.63;22.07;;;;;;;;;;4968401;28;20274;-82
2022/12/12 03:40:20;;;;;;;32.80;22.20;;;;;;;;;;4956852;29;20187;-82
2022/12/12 03:42:46;;;;;;;33.07;23.03;;;;;;;;;;4955609;29;20191;-82
2022/12/12 03:45:16;;;;;;;31.67;22.00;;;;;;;;;;4956187;29;20246;-81
2022/12/12 03:47:49;;;;;;;30.53;21.57;;;;;;;;;;4955677;29;20210;-82
2022/12/12 03:50:21;;;;;;;32.27;22.20;;;;;;;;;;4955944;29;20183;-81
2022/12/12 03:52:51;;;;;;;31.77;22.57;;;;;;;;;;4956501;28;20188;-81
2022/12/12 03:55:23;;;;;;;30.97;22.73;;;;;;;;;;4955671;28;20271;-81
2022/12/12 03:57:58;;;;;;;37.30;22.50;;;;;;;;;;4955564;29;20184;-81
2022/12/12 04:00:25;;;;;;;32.40;22.70;;;;;;;;;;4956382;28;20171;-81
2022/12/12 04:03:04;;;;;;;30.83;21.40;;;;;;;;;;4959925;28;20214;-81
2022/12/12 04:05:36;;;;;;;32.07;22.07;;;;;;;;;;4974699;28;20320;-81
2022/12/12 04:08:11;;;;;;;33.23;22.40;;;;;;;;;;4955342;28;20301;-81
2022/12/12 04:13:48;;;;;;;34.23;23.17;;;;;;;;;;4957400;28;20206;-81
2022/12/12 04:16:17;;;;;;;31.53;22.47;;;;;;;;;;4935993;29;20188;-81
2022/12/12 04:18:46;;;;;;;35.87;23.27;;;;;;;;;;4972468;28;20186;-81
2022/12/12 04:24:32;;;;;;;30.47;21.50;;;;;;;;;;4972526;28;20176;-78
2022/12/12 04:27:07;;;;;;;32.77;22.77;;;;;;;;;;4957100;28;20190;-79
2022/12/12 04:29:42;;;;;;;33.07;22.17;;;;;;;;;;4973094;28;20232;-79
2022/12/12 04:32:11;;;;;;;32.53;22.53;;;;;;;;;;4956926;28;20280;-79
2022/12/12 04:34:40;;;;;;;31.07;20.57;;;;;;;;;;4972964;28;20191;-79
2022/12/12 04:37:08;;;;;;;33.53;21.67;;;;;;;;;;4946817;29;20270;-78
2022/12/12 04:39:36;;;;;;;29.47;20.93;;;;;;;;;;4944085;29;20191;-79
2022/12/12 04:42:04;;;;;;;31.17;20.73;;;;;;;;;;4972174;28;20187;-79
2022/12/12 04:44:31;;;;;;;32.03;21.87;;;;;;;;;;4972224;28;20245;-78
2022/12/12 04:46:58;;;;;;;31.20;20.80;;;;;;;;;;4956736;28;20210;-78
2022/12/12 04:49:26;;;;;;;30.90;21.40;;;;;;;;;;4957885;28;20210;-78
2022/12/12 04:51:54;;;;;;;30.30;21.37;;;;;;;;;;4954944;28;20261;-78
2022/12/12 04:54:23;;;;;;;35.30;22.37;;;;;;;;;;4953346;29;20180;-78
2022/12/12 04:56:51;;;;;;;29.47;20.57;;;;;;;;;;4944466;28;20197;-81
2022/12/12 04:59:17;;;;;;;31.67;20.97;;;;;;;;;;4956025;28;20221;-81
2022/12/12 05:01:47;;;;;;;32.73;22.17;;;;;;;;;;4953695;29;20195;-81
2022/12/12 05:04:23;;;;;;;30.80;21.87;;;;;;;;;;4968085;28;20186;-81
2022/12/12 05:06:53;;;;;;;30.53;20.53;;;;;;;;;;4939824;29;20285;-81
2022/12/12 05:09:19;;;;;;;32.40;21.83;;;;;;;;;;4939891;29;20269;-81
2022/12/12 05:11:45;;;;;;;31.03;21.20;;;;;;;;;;4939203;28;20196;-81
2022/12/12 05:14:14;;;;;;;29.80;20.57;;;;;;;;;;4952063;28;20196;-82
2022/12/12 05:17:00;;;;;;;29.27;20.53;;;;;;;;;;4945965;29;20194;-83
2022/12/12 05:19:26;;;;;;;30.00;21.00;;;;;;;;;;4935533;29;20198;-82
2022/12/12 05:21:52;;;;;;;33.03;22.00;;;;;;;;;;4955005;28;20282;-82
2022/12/12 05:24:18;;;;;;;31.53;21.60;;;;;;;;;;4958243;28;20329;-83
2022/12/12 05:26:45;;;;;;;32.67;21.30;;;;;;;;;;4958825;28;20202;-83
2022/12/12 05:29:11;;;;;;;32.47;21.37;;;;;;;;;;4960808;28;20213;-82
2022/12/12 05:31:37;;;;;;;32.90;21.83;;;;;;;;;;4949512;29;20231;-78
2022/12/12 05:34:03;;;;;;;33.07;21.57;;;;;;;;;;4959455;28;20185;-78
2022/12/12 05:36:29;;;;;;;35.27;22.40;;;;;;;;;;4977948;28;20262;-79
2022/12/12 05:38:55;;;;;;;32.77;21.60;;;;;;;;;;4977514;28;20281;-78
2022/12/12 05:41:21;;;;;;;35.70;22.50;;;;;;;;;;4977550;28;20281;-78
2022/12/12 05:43:47;;;;;;;41.47;30.37;;;;;;;;;;4976467;28;20547;-78
2022/12/12 05:46:13;;;;;;;34.20;23.17;;;;;;;;;;4977279;28;20233;-79
2022/12/12 05:48:39;;;;;;;31.87;21.73;;;;;;;;;;4952376;29;20349;-78
2022/12/12 05:51:05;;;;;;;31.37;21.57;;;;;;;;;;4956422;29;20279;-79
2022/12/12 05:53:31;;;;;;;33.72;23.10;;;;;;;;;;4950169;29;20519;-78
2022/12/12 05:55:57;;;;;;;38.47;28.95;;;;;;;;;;4956795;29;20479;-79
2022/12/12 05:58:24;;;;;;;36.27;24.00;;;;;;;;;;4951736;29;20242;-79
2022/12/12 06:00:50;;;;;;;32.17;22.50;;;;;;;;;;4940662;29;20195;-79
2022/12/12 06:03:17;;;;;;;30.07;20.80;;;;;;;;;;4940991;29;20239;-79
2022/12/12 06:05:43;;;;;;;32.47;21.80;;;;;;;;;;4942047;29;20179;-78
2022/12/12 06:08:09;;;;;;;29.30;20.37;;;;;;;;;;4958414;29;20210;-79
2022/12/12 06:10:35;;;;;;;30.63;21.07;;;;;;;;;;4957442;28;20234;-78
2022/12/12 06:13:01;;;;;;;33.80;22.23;;;;;;;;;;4939923;29;20195;-79
2022/12/12 06:15:27;;;;;;;41.53;30.27;;;;;;;;;;4957335;28;20443;-79
2022/12/12 06:17:53;;;;;;;33.00;23.63;;;;;;;;;;4941620;29;20187;-79
2022/12/12 06:20:20;;;;;;;35.30;23.52;;;;;;;;;;4941053;29;20446;-83
2022/12/12 06:22:46;;;;;;;40.07;29.97;;;;;;;;;;4940410;29;20404;-83
2022/12/12 06:25:12;;;;;;;42.17;29.83;;;;;;;;;;4957748;29;20423;-83
2022/12/12 06:27:39;;;;;;;41.78;30.88;;;;;;;;;;4940152;29;20521;-83
2022/12/12 06:30:05;;;;;;;41.13;31.40;;;;;;;;;;4940116;29;20483;-83
2022/12/12 06:32:31;;;;;;;40.72;31.42;;;;;;;;;;4953561;29;20448;-83
2022/12/12 06:34:57;;;;;;;41.45;30.63;;;;;;;;;;4955365;28;20436;-83
2022/12/12 06:37:23;;;;;;;41.50;30.23;;;;;;;;;;4955957;28;20420;-78
2022/12/12 06:39:50;;;;;;;43.15;31.67;;;;;;;;;;4955964;28;20432;-79
2022/12/12 06:42:16;;;;;;;32.40;22.80;;;;;;;;;;4956884;28;20199;-78
2022/12/12 06:44:42;;;;;;;39.25;27.45;;;;;;;;;;4956431;28;20411;-78
2022/12/12 06:47:08;;;;;;;40.88;29.63;;;;;;;;;;4972356;28;20415;-79
2022/12/12 06:49:34;;;;;;;43.05;30.23;;;;;;;;;;4955624;28;20440;-79
2022/12/12 06:52:00;;;;;;;34.63;22.57;;;;;;;;;;4956950;28;20182;-79
2022/12/12 06:54:26;;;;;;;29.90;21.67;;;;;;;;;;4956665;28;20179;-79
2022/12/12 06:56:52;;;;;;;30.90;20.87;;;;;;;;;;4956486;28;20259;-79
2022/12/12 06:59:18;;;;;;;30.77;20.00;;;;;;;;;;4956525;28;20274;-79
2022/12/12 07:01:44;;;;;;;37.97;24.10;;;;;;;;;;4956482;28;20420;-79
2022/12/12 07:04:14;;;;;;;36.63;22.90;;;;;;;;;;4956639;28;20234;-79
2022/12/12 07:06:40;;;;;;;32.83;21.33;;;;;;;;;;4954971;28;20182;-79
2022/12/12 07:09:07;;;;;;;33.80;20.87;;;;;;;;;;4939086;29;20235;-79
2022/12/12 07:11:33;;;;;;;32.20;20.00;;;;;;;;;;4954792;28;20234;-79
2022/12/12 07:14:00;;;;;;;29.93;20.37;;;;;;;;;;4955949;28;20176;-79
2022/12/12 07:16:26;;;;;;;33.23;20.63;;;;;;;;;;4939777;29;20270;-79
2022/12/12 07:18:52;;;;;;;33.17;20.70;;;;;;;;;;4956159;28;20183;-79
2022/12/12 07:21:19;;;;;;;41.42;29.50;;;;;;;;;;4955055;28;20443;-79
2022/12/12 07:23:46;;;;;;;36.40;22.33;;;;;;;;;;4956308;29;20210;-79
2022/12/12 07:26:14;;;;;;;36.30;22.93;;;;;;;;;;4956584;28;20255;-79
2022/12/12 07:28:40;;;;;;;38.97;23.13;;;;;;;;;;4957187;28;20266;-84
2022/12/12 07:31:11;;;;;;;34.87;22.93;;;;;;;;;;4942703;28;20233;-84
2022/12/12 07:33:37;;;;;;;35.80;23.60;;;;;;;;;;4974946;28;20178;-83
2022/12/12 07:36:03;;;;;;;38.80;23.27;;;;;;;;;;4943194;28;20189;-84
2022/12/12 07:38:29;;;;;;;37.13;23.33;;;;;;;;;;4976350;28;20238;-83
2022/12/12 07:40:55;;;;;;;45.30;32.22;;;;;;;;;;4973785;28;20426;-83
2022/12/12 07:43:21;;;;;;;39.13;26.00;;;;;;;;;;4942704;28;20182;-84
2022/12/12 07:45:47;;;;;;;45.88;32.40;;;;;;;;;;4939736;28;20434;-83
2022/12/12 07:48:14;;;;;;;37.33;25.77;;;;;;;;;;4941760;28;20222;-84
2022/12/12 07:50:40;;;;;;;42.37;24.30;;;;;;;;;;4958647;28;20179;-84
2022/12/12 07:53:07;;;;;;;37.20;23.97;;;;;;;;;;4971879;28;20187;-84
2022/12/12 07:55:33;;;;;;;37.97;24.23;;;;;;;;;;4975722;28;20174;-84
2022/12/12 07:57:59;;;;;;;47.97;33.17;;;;;;;;;;4973492;28;20410;-84
2022/12/12 08:00:25;;;;;;;45.80;33.45;;;;;;;;;;4973639;28;20497;-79
2022/12/12 08:02:51;;;;;;;48.63;35.10;;;;;;;;;;4941637;28;20410;-79
2022/12/12 08:05:17;;;;;;;51.72;31.95;;;;;;;;;;4975192;28;20421;-79
2022/12/12 08:07:43;;;;;;;55.63;37.65;;;;;;;;;;4973597;28;20414;-78
2022/12/12 08:10:10;;;;;;;55.67;38.20;;;;;;;;;;4973463;28;20430;-79
2022/12/12 08:12:36;;;;;;;48.87;28.80;;;;;;;;;;4941741;28;20171;-79
2022/12/12 08:15:02;;;;;;;43.03;27.23;;;;;;;;;;4941812;28;20206;-78
2022/12/12 08:17:28;;;;;;;53.55;37.97;;;;;;;;;;4965080;28;20414;-79
2022/12/12 08:19:54;;;;;;;56.13;38.08;;;;;;;;;;4972289;28;20502;-79
2022/12/12 08:22:20;;;;;;;56.80;40.15;;;;;;;;;;4955086;28;20432;-80
2022/12/12 08:24:48;;;;;;;60.28;39.63;;;;;;;;;;4957556;28;20418;-79
2022/12/12 08:27:14;;;;;;;55.67;39.75;;;;;;;;;;4973483;28;20502;-80
2022/12/12 08:29:40;;;;;;;50.63;30.57;;;;;;;;;;4975200;28;20280;-80
2022/12/12 08:32:06;;;;;;;54.53;38.25;;;;;;;;;;4956860;28;20557;-80
2022/12/12 08:34:32;;;;;;;51.47;29.90;;;;;;;;;;4974061;28;20190;-80
2022/12/12 08:36:58;;;;;;;47.87;28.13;;;;;;;;;;4974181;28;20179;-80
2022/12/12 08:39:24;;;;;;;47.93;28.60;;;;;;;;;;4958009;28;20248;-80
2022/12/12 08:41:50;;;;;;;46.50;28.40;;;;;;;;;;4974009;28;20187;-80
2022/12/12 08:44:18;;;;;;;44.87;27.23;;;;;;;;;;4974189;28;20197;-80
2022/12/12 08:46:44;;;;;;;40.73;27.10;;;;;;;;;;4974114;28;20186;-80
2022/12/12 08:49:10;;;;;;;41.13;26.60;;;;;;;;;;4973910;28;20264;-80
2022/12/12 08:51:40;;;;;;;36.47;25.07;;;;;;;;;;4974098;28;20186;-79
2022/12/12 08:54:07;;;;;;;32.42;24.95;;;;;;;;;;4972800;28;20410;-79
2022/12/12 08:56:33;;;;;;;28.60;23.90;;;;;;;;;;4957024;28;20418;-79
2022/12/12 08:58:59;;;;;;;27.97;20.90;;;;;;;;;;4974745;28;20182;-79
2022/12/12 09:01:26;;;;;;;29.43;21.13;;;;;;;;;;4973538;28;20194;-80
2022/12/12 09:03:52;;;;;;;30.20;20.63;;;;;;;;;;4973875;28;20246;-80
2022/12/12 09:06:19;;;;;;;29.98;23.55;;;;;;;;;;4956972;28;20488;-80
2022/12/12 09:08:45;;;;;;;27.35;23.05;;;;;;;;;;4974090;28;20440;-81
2022/12/12 09:11:12;;;;;;;30.08;23.00;;;;;;;;;;4973426;28;20418;-81
2022/12/12 09:13:38;;;;;;;27.40;23.23;;;;;;;;;;4956643;28;20422;-81
2022/12/12 09:16:05;;;;;;;26.57;20.43;;;;;;;;;;4973702;28;20182;-81
2022/12/12 09:18:31;;;;;;;25.73;22.35;;;;;;;;;;4972922;28;20417;-81
2022/12/12 09:20:58;;;;;;;26.88;22.58;;;;;;;;;;4972891;28;20411;-81
2022/12/12 09:23:25;;;;;;;26.40;21.90;;;;;;;;;;4973431;28;20411;-81
2022/12/12 09:25:51;;;;;;;29.08;22.83;;;;;;;;;;4973335;28;20425;-80
2022/12/12 09:28:18;;;;;;;28.30;23.20;;;;;;;;;;4973149;28;20441;-80
2022/12/12 09:30:45;;;;;;;29.05;23.30;;;;;;;;;;4975865;28;20494;-80
2022/12/12 09:33:11;;;;;;;27.73;22.50;;;;;;;;;;4992913;28;20405;-80
2022/12/12 09:35:37;;;;;;;28.48;23.95;;;;;;;;;;4992303;28;20552;-81
2022/12/12 09:38:03;;;;;;;27.53;21.03;;;;;;;;;;4993011;28;20220;-81
2022/12/12 09:40:33;;;;;;;28.52;22.80;;;;;;;;;;4986515;28;20538;-84
2022/12/12 09:42:59;;;;;;;27.67;23.15;;;;;;;;;;4982136;28;20412;-84
2022/12/12 09:45:25;;;;;;;26.73;21.20;;;;;;;;;;4951765;28;20181;-84
2022/12/12 09:47:56;;;;;;;25.77;20.40;;;;;;;;;;4966276;28;20261;-84
2022/12/12 09:50:34;;;;;;;25.58;21.48;;;;;;;;;;4981247;28;20406;-84
2022/12/12 09:53:02;;;;;;;28.50;20.90;;;;;;;;;;4981517;28;20186;-84
2022/12/12 09:55:54;;;;;;;26.43;19.70;;;;;;;;;;4986684;28;20272;-84
2022/12/12 09:58:25;;;;;;;26.23;20.13;;;;;;;;;;4981303;28;20224;-86
2022/12/12 10:00:55;;;;;;;27.27;19.53;;;;;;;;;;4982923;28;20185;-85
2022/12/12 10:03:44;;;;;;;26.20;19.10;;;;;;;;;;4967411;28;20305;-85
2022/12/12 10:06:11;;;;;;;26.40;19.77;;;;;;;;;;4986228;28;20187;-86
2022/12/12 10:08:42;;;;;;;28.67;20.30;;;;;;;;;;4982606;28;20205;-86
2022/12/12 10:11:49;;;;;;;27.70;19.90;;;;;;;;;;4982262;28;20182;-85
2022/12/12 10:13:58;;;;;;;26.03;19.83;;;;;;;;;;4958523;29;20190;-81
2022/12/12 10:16:25;;;;;;;26.80;21.98;;;;;;;;;;4956551;29;20408;-81
2022/12/12 10:18:52;;;;;;;26.77;20.33;;;;;;;;;;4941518;29;20190;-81
2022/12/12 10:21:21;;;;;;;25.55;20.23;;;;;;;;;;4956642;29;20419;-80
2022/12/12 10:23:52;;;;;;;27.23;20.50;;;;;;;;;;4957321;29;20203;-81
2022/12/12 10:26:23;;;;;;;25.00;18.63;;;;;;;;;;4989979;28;20216;-81
2022/12/12 10:28:51;;;;;;;26.70;19.40;;;;;;;;;;4996819;28;20260;-81
2022/12/12 10:31:50;;;;;;;24.03;18.90;;;;;;;;;;4995738;28;20229;-85
2022/12/12 10:34:19;;;;;;;28.47;19.53;;;;;;;;;;4953950;28;20217;-84
2022/12/12 10:36:45;;;;;;;27.60;18.97;;;;;;;;;;4996095;28;20263;-85
2022/12/12 10:39:10;;;;;;;23.77;18.57;;;;;;;;;;4995998;28;20182;-85
2022/12/12 10:41:44;;;;;;;23.93;18.50;;;;;;;;;;4995629;28;20178;-85
2022/12/12 10:44:24;;;;;;;26.93;19.50;;;;;;;;;;4995574;28;20237;-84
2022/12/12 10:47:00;;;;;;;24.03;18.37;;;;;;;;;;4995471;28;20182;-86
2022/12/12 10:49:26;;;;;;;27.23;18.40;;;;;;;;;;4995829;28;20214;-86
2022/12/12 10:51:54;;;;;;;21.67;17.60;;;;;;;;;;4947537;28;20219;-86
2022/12/12 10:54:21;;;;;;;24.37;17.87;;;;;;;;;;4956745;29;20179;-86
2022/12/12 10:57:06;;;;;;;25.83;18.20;;;;;;;;;;4968805;28;20174;-86
2022/12/12 10:59:38;;;;;;;24.57;18.17;;;;;;;;;;4985466;28;20209;-86
2022/12/12 11:02:04;;;;;;;24.67;18.27;;;;;;;;;;4989211;28;20193;-86
2022/12/12 11:04:31;;;;;;;23.77;17.83;;;;;;;;;;4969299;28;20182;-85
2022/12/12 11:06:57;;;;;;;24.07;17.10;;;;;;;;;;4953129;28;20205;-85
2022/12/12 11:09:24;;;;;;;23.13;17.33;;;;;;;;;;4949882;28;20257;-85
2022/12/12 11:12:04;;;;;;;20.43;16.53;;;;;;;;;;4961454;28;20213;-85
2022/12/12 11:14:36;;;;;;;23.40;15.87;;;;;;;;;;4989003;28;20233;-85
2022/12/12 11:17:02;;;;;;;22.60;16.83;;;;;;;;;;4969753;28;20198;-85
2022/12/12 11:19:36;;;;;;;20.80;16.43;;;;;;;;;;4984969;28;20238;-85
2022/12/12 11:22:02;;;;;;;20.97;16.43;;;;;;;;;;4983892;28;20178;-85
2022/12/12 11:24:31;;;;;;;20.27;16.27;;;;;;;;;;4986143;28;20232;-85
2022/12/12 11:26:57;;;;;;;21.57;16.70;;;;;;;;;;4968853;28;20205;-85
2022/12/12 11:29:29;;;;;;;27.13;17.77;;;;;;;;;;4983906;28;20209;-85
2022/12/12 11:31:55;;;;;;;23.27;16.67;;;;;;;;;;4980902;28;20230;-85
2022/12/12 11:34:22;;;;;;;23.90;18.33;;;;;;;;;;4955659;28;20496;-85
2022/12/12 11:36:48;;;;;;;24.23;18.87;;;;;;;;;;4939691;29;20527;-82
2022/12/12 11:39:23;;;;;;;24.83;20.10;;;;;;;;;;4939460;29;20416;-81
2022/12/12 11:42:04;;;;;;;25.98;20.83;;;;;;;;;;4954964;28;20424;-81
2022/12/12 11:44:32;;;;;;;26.13;20.83;;;;;;;;;;4955006;28;20457;-81
2022/12/12 11:47:14;;;;;;;26.98;20.92;;;;;;;;;;4956045;28;20407;-81
2022/12/12 11:49:46;;;;;;;25.50;21.90;;;;;;;;;;4955096;28;20474;-81
2022/12/12 11:52:19;;;;;;;26.40;20.33;;;;;;;;;;4955944;28;20171;-82
2022/12/12 11:54:46;;;;;;;28.40;22.42;;;;;;;;;;4955198;28;20412;-80
2022/12/12 11:57:14;;;;;;;26.47;19.53;;;;;;;;;;4939970;29;20184;-79
2022/12/12 11:59:43;;;;;;;31.05;23.73;;;;;;;;;;4954814;28;20419;-78
2022/12/12 12:02:18;;;;;;;27.43;19.87;;;;;;;;;;4955481;28;20229;-78
2022/12/12 12:04:58;;;;;;;30.10;20.13;;;;;;;;;;4955176;28;20189;-79
2022/12/12 12:07:32;;;;;;;31.30;19.77;;;;;;;;;;4936311;29;20188;-79
2022/12/12 12:10:01;;;;;;;33.00;24.15;;;;;;;;;;4936329;29;20443;-78
2022/12/12 12:12:34;;;;;;;29.20;23.52;;;;;;;;;;4935134;29;20425;-81
2022/12/12 12:15:05;;;;;;;29.45;21.95;;;;;;;;;;4935712;29;20488;-82
2022/12/12 12:17:50;;;;;;;29.70;22.85;;;;;;;;;;4935273;29;20417;-80
2022/12/12 12:20:16;;;;;;;27.90;21.30;;;;;;;;;;4935327;29;20420;-80
2022/12/12 12:22:51;;;;;;;29.52;20.60;;;;;;;;;;4942095;29;20415;-80
2022/12/12 12:25:37;;;;;;;26.90;17.83;;;;;;;;;;4954155;28;20179;-80
2022/12/12 12:28:32;;;;;;;23.90;17.40;;;;;;;;;;4952908;28;20282;-83
2022/12/12 12:30:58;;;;;;;28.40;17.43;;;;;;;;;;4950755;28;20257;-83
2022/12/12 12:33:24;;;;;;;29.17;17.47;;;;;;;;;;4973266;28;20210;-82
2022/12/12 12:36:08;;;;;;;25.63;19.58;;;;;;;;;;4973148;28;20445;-82
2022/12/12 12:38:34;;;;;;;24.17;16.10;;;;;;;;;;4974465;28;20178;-83
2022/12/12 12:41:19;;;;;;;28.87;16.67;;;;;;;;;;4974240;28;20241;-83
2022/12/12 12:43:52;;;;;;;23.67;16.37;;;;;;;;;;4973993;28;20190;-82
2022/12/12 12:46:24;;;;;;;23.77;15.23;;;;;;;;;;5003249;23;20316;-86
2022/12/12 12:48:53;;;;;;;22.23;15.30;;;;;;;;;;4993222;28;20214;-86
2022/12/12 12:51:28;;;;;;;22.87;15.57;;;;;;;;;;4993249;28;20209;-86
2022/12/12 12:54:01;;;;;;;24.20;15.20;;;;;;;;;;4993673;28;20181;-86
2022/12/12 12:56:31;;;;;;;22.93;14.83;;;;;;;;;;4993468;28;20182;-86
2022/12/12 12:59:11;;;;;;;19.87;13.90;;;;;;;;;;4993280;28;20178;-86
2022/12/12 13:01:41;;;;;;;23.40;14.30;;;;;;;;;;4993529;28;20177;-79
2022/12/12 13:04:12;;;;;;;22.03;14.17;;;;;;;;;;4994471;28;20178;-79
2022/12/12 13:06:45;;;;;;;19.60;13.57;;;;;;;;;;4994347;28;20182;-79
2022/12/12 13:09:14;;;;;;;20.93;13.93;;;;;;;;;;4994219;28;20206;-79
2022/12/12 13:11:42;;;;;;;22.03;14.73;;;;;;;;;;4993198;28;20201;-79
2022/12/12 13:14:23;;;;;;;22.60;14.40;;;;;;;;;;4993504;28;20182;-79
2022/12/12 13:16:50;;;;;;;24.07;16.23;;;;;;;;;;4993286;28;20273;-82
2022/12/12 13:19:28;;;;;;;26.63;16.83;;;;;;;;;;4977189;28;20197;-82
2022/12/12 13:21:57;;;;;;;21.90;15.50;;;;;;;;;;4993274;28;20182;-83
2022/12/12 13:24:44;;;;;;;26.58;18.13;;;;;;;;;;4992470;28;20425;-82
2022/12/12 13:27:25;;;;;;;26.27;20.00;;;;;;;;;;4989563;28;20468;-82
2022/12/12 13:29:59;;;;;;;27.65;20.58;;;;;;;;;;4990599;28;20483;-82
2022/12/12 13:32:44;;;;;;;26.33;17.57;;;;;;;;;;4992695;28;20174;-83
2022/12/12 13:35:12;;;;;;;26.03;17.13;;;;;;;;;;4990661;28;20250;-82
2022/12/12 13:37:46;;;;;;;23.80;15.83;;;;;;;;;;4992940;28;20210;-83
2022/12/12 13:40:29;;;;;;;25.50;16.83;;;;;;;;;;4981675;28;20182;-82
2022/12/12 13:42:57;;;;;;;22.70;15.20;;;;;;;;;;4991535;28;20174;-82
2022/12/12 13:45:36;;;;;;;24.50;16.17;;;;;;;;;;4996079;28;20252;-82
2022/12/12 13:48:09;;;;;;;25.20;16.67;;;;;;;;;;4991214;28;20185;-82
2022/12/12 13:50:35;;;;;;;24.40;16.40;;;;;;;;;;5000482;28;20220;-80
2022/12/12 13:53:07;;;;;;;27.10;16.50;;;;;;;;;;4992408;28;20217;-79
2022/12/12 13:55:37;;;;;;;23.80;16.27;;;;;;;;;;4990849;28;20182;-79
2022/12/12 13:58:16;;;;;;;24.80;15.50;;;;;;;;;;4982878;28;20186;-79
2022/12/12 14:00:42;;;;;;;22.10;14.70;;;;;;;;;;4980068;28;20186;-79
2022/12/12 14:03:12;;;;;;;22.63;15.47;;;;;;;;;;4995714;28;20193;-79
2022/12/12 14:05:42;;;;;;;25.33;16.47;;;;;;;;;;4995198;28;20178;-79
2022/12/12 14:08:12;;;;;;;26.47;15.73;;;;;;;;;;4984894;28;20237;-86
2022/12/12 14:10:43;;;;;;;25.77;15.77;;;;;;;;;;4987060;28;20213;-86
2022/12/12 14:13:26;;;;;;;23.33;15.27;;;;;;;;;;4979895;28;20178;-84
2022/12/12 14:15:55;;;;;;;24.33;15.77;;;;;;;;;;4980343;28;20178;-84
2022/12/12 14:18:23;;;;;;;22.87;15.10;;;;;;;;;;4980116;28;20236;-84
2022/12/12 14:20:55;;;;;;;21.43;15.13;;;;;;;;;;4980221;28;20182;-84
2022/12/12 14:23:31;;;;;;;22.70;14.63;;;;;;;;;;4979978;28;20213;-84
2022/12/12 14:25:58;;;;;;;23.23;15.37;;;;;;;;;;4996431;28;20209;-80
2022/12/12 14:28:32;;;;;;;23.33;15.70;;;;;;;;;;4979847;28;20277;-79
2022/12/12 14:31:05;;;;;;;22.77;14.87;;;;;;;;;;4997198;28;20177;-80
2022/12/12 14:33:50;;;;;;;22.07;13.87;;;;;;;;;;4980018;28;20197;-79
2022/12/12 14:36:25;;;;;;;22.40;15.50;;;;;;;;;;4979649;28;20182;-79
2022/12/12 14:39:09;;;;;;;21.57;14.97;;;;;;;;;;4979714;28;20179;-79
2022/12/12 14:41:37;;;;;;;20.33;14.27;;;;;;;;;;4975487;28;20187;-81
2022/12/12 14:44:05;;;;;;;23.25;16.13;;;;;;;;;;4976233;28;20414;-81